Time;durP1;ratioP1;P1;durP2;ratioP2;P2;SDS_P1;SDS_P2;PMS_P1;PMS_P2;Temp;Humidity;BMP_temperature;BMP_pressure;BME280_temperature;BME280_humidity;BME280_pressure;Samples;Min_cycle;Max_cycle;Signal;HPM_P1;HPM_P2
2022/11/09 00:01:22;;;;;;;8.60;1.70;;;;;;;21.40;46.93;100452.91;5051544;28;20058;-71
2022/11/09 00:03:47;;;;;;;9.20;2.13;;;;;;;20.63;47.78;100454.84;5049067;28;20390;-71
2022/11/09 00:06:13;;;;;;;10.90;2.40;;;;;;;21.45;46.48;100453.50;5052426;28;20060;-70
2022/11/09 00:08:40;;;;;;;9.88;2.10;;;;;;;21.75;45.93;100447.25;5050040;28;20052;-71
2022/11/09 00:11:10;;;;;;;14.63;1.85;;;;;;;21.31;46.35;100453.50;5047983;28;20414;-70
2022/11/09 00:13:40;;;;;;;10.32;1.77;;;;;;;21.19;46.38;100460.41;5051524;28;20024;-71
2022/11/09 00:16:07;;;;;;;15.13;1.98;;;;;;;20.93;46.96;100459.31;5051990;28;20425;-71
2022/11/09 00:18:36;;;;;;;16.27;1.92;;;;;;;20.21;49.21;100453.69;5050117;28;20477;-71
2022/11/09 00:21:12;;;;;;;8.18;1.55;;;;;;;20.66;47.02;100447.56;5049348;28;20037;-72
2022/11/09 00:23:37;;;;;;;11.10;2.17;;;;;;;20.80;46.70;100448.56;5052017;28;20021;-71
2022/11/09 00:26:05;;;;;;;8.23;1.77;;;;;;;21.25;46.10;100438.78;5049750;28;20087;-71
2022/11/09 00:28:31;;;;;;;9.60;1.50;;;;;;;21.02;46.26;100449.00;5049773;28;20394;-71
2022/11/09 00:31:09;;;;;;;11.20;1.90;;;;;;;20.44;47.44;100458.56;5050017;28;20029;-71
2022/11/09 00:33:34;;;;;;;10.38;1.92;;;;;;;20.70;47.21;100445.59;5050295;28;20087;-71
2022/11/09 00:36:09;;;;;;;10.27;1.88;;;;;;;20.67;46.74;100449.25;5051826;28;20033;-72
2022/11/09 00:38:35;;;;;;;9.57;2.58;;;;;;;20.33;47.45;100445.03;5049729;28;20020;-70
2022/11/09 00:41:03;;;;;;;10.60;1.83;;;;;;;20.53;47.79;100451.00;5049211;28;20059;-71
2022/11/09 00:43:28;;;;;;;10.75;1.48;;;;;;;20.14;48.09;100442.56;5050566;28;20100;-72
2022/11/09 00:45:53;;;;;;;12.75;2.03;;;;;;;20.20;47.70;100449.34;5049572;28;20131;-71
2022/11/09 00:48:19;;;;;;;9.68;1.67;;;;;;;21.21;45.98;100447.03;5048241;28;20489;-71
2022/11/09 00:50:49;;;;;;;10.50;1.98;;;;;;;20.51;47.41;100453.72;5049365;28;20500;-71
2022/11/09 00:53:15;;;;;;;7.90;1.73;;;;;;;21.27;45.67;100449.34;5048986;28;20017;-71
2022/11/09 00:55:51;;;;;;;8.68;2.30;;;;;;;20.89;46.49;100453.31;5050134;28;20137;-71
2022/11/09 00:58:17;;;;;;;10.55;2.08;;;;;;;20.51;47.12;100448.41;5051531;28;20483;-71
2022/11/09 01:00:42;;;;;;;12.13;2.20;;;;;;;20.56;46.84;100450.81;5047414;28;20115;-71
2022/11/09 01:03:07;;;;;;;11.20;1.60;;;;;;;19.77;48.64;100442.78;5049372;28;20112;-71
2022/11/09 01:05:33;;;;;;;12.35;1.80;;;;;;;19.49;49.77;100449.59;5049554;28;20113;-72
2022/11/09 01:07:58;;;;;;;11.48;2.03;;;;;;;20.58;46.79;100444.50;5048195;28;20032;-71
2022/11/09 01:10:26;;;;;;;12.82;2.45;;;;;;;20.75;46.20;100450.66;5049271;28;20035;-71
2022/11/09 01:12:51;;;;;;;15.77;2.15;;;;;;;19.70;48.86;100445.84;5049489;28;20102;-72
2022/11/09 01:15:16;;;;;;;12.40;2.28;;;;;;;20.59;46.57;100456.78;5048469;28;20454;-71
2022/11/09 01:17:42;;;;;;;7.75;1.60;;;;;;;20.03;47.93;100448.50;5048113;28;20043;-71
2022/11/09 01:20:08;;;;;;;8.93;1.88;;;;;;;19.74;48.73;100463.31;5050890;28;20028;-71
2022/11/09 01:22:33;;;;;;;12.95;1.90;;;;;;;20.22;47.13;100458.91;5048170;28;20029;-70
2022/11/09 01:24:58;;;;;;;8.95;1.55;;;;;;;20.77;46.56;100460.25;5050349;28;20029;-71
2022/11/09 01:27:24;;;;;;;12.48;2.33;;;;;;;20.10;47.76;100455.16;5047529;28;20082;-70
2022/11/09 01:29:49;;;;;;;11.75;1.92;;;;;;;20.72;46.27;100461.44;5050183;28;20435;-71
2022/11/09 01:32:14;;;;;;;14.23;1.83;;;;;;;21.29;45.61;100456.25;5082406;28;20068;-71
2022/11/09 01:34:40;;;;;;;8.63;1.85;;;;;;;20.40;47.99;100467.66;5047755;28;20025;-71
2022/11/09 01:37:05;;;;;;;14.20;1.80;;;;;;;20.86;46.68;100465.94;5047492;28;20106;-71
2022/11/09 01:39:30;;;;;;;8.07;2.17;;;;;;;20.46;47.22;100466.44;5049965;28;20040;-71
2022/11/09 01:41:56;;;;;;;11.68;1.92;;;;;;;21.40;44.77;100466.22;5048676;28;20557;-71
2022/11/09 01:44:21;;;;;;;13.65;1.60;;;;;;;21.28;45.85;100472.28;5048655;28;20027;-71
2022/11/09 01:46:54;;;;;;;11.00;2.53;;;;;;;21.89;44.25;100466.81;5047704;28;20103;-71
2022/11/09 01:49:39;;;;;;;8.23;2.00;;;;;;;20.56;47.03;100456.13;5047585;28;20029;-71
2022/11/09 01:52:11;;;;;;;11.75;2.00;;;;;;;21.00;46.34;100450.88;5049447;28;20027;-71
2022/11/09 01:54:44;;;;;;;18.63;2.53;;;;;;;21.44;45.16;100442.97;5048635;28;20541;-71
2022/11/09 01:57:14;;;;;;;10.73;2.60;;;;;;;20.23;47.45;100459.78;5047865;28;20037;-71
2022/11/09 01:59:47;;;;;;;14.60;2.33;;;;;;;20.53;47.43;100467.78;5049158;28;20545;-71
2022/11/09 02:02:12;;;;;;;8.68;1.90;;;;;;;20.83;46.65;100459.88;5053309;28;20326;-71
2022/11/09 02:04:44;;;;;;;15.70;2.03;;;;;;;21.16;45.70;100469.44;5050472;28;20405;-71
2022/11/09 02:07:09;;;;;;;11.80;2.28;;;;;;;20.99;46.83;100465.13;5052615;28;20119;-72
2022/11/09 02:09:46;;;;;;;10.57;2.78;;;;;;;20.73;46.92;100479.94;5052561;28;20113;-71
2022/11/09 02:12:11;;;;;;;9.32;1.90;;;;;;;21.23;46.22;100466.41;5053232;28;20020;-71
2022/11/09 02:14:38;;;;;;;12.52;2.25;;;;;;;21.68;44.96;100454.78;5051003;28;20421;-71
2022/11/09 02:17:04;;;;;;;12.60;2.30;;;;;;;21.26;46.42;100458.25;5050989;28;20037;-71
2022/11/09 02:19:29;;;;;;;11.02;1.80;;;;;;;21.44;45.83;100456.25;5053098;28;20040;-71
2022/11/09 02:21:55;;;;;;;9.35;1.52;;;;;;;21.68;45.00;100462.75;5054444;28;20389;-71
2022/11/09 02:24:20;;;;;;;13.43;3.03;;;;;;;20.93;46.56;100459.31;5084704;28;20711;-71
2022/11/09 02:26:48;;;;;;;11.70;2.53;;;;;;;20.73;47.30;100464.03;5052683;28;20096;-71
2022/11/09 02:29:32;;;;;;;12.15;2.35;;;;;;;20.63;47.89;100470.75;5052966;28;20032;-70
2022/11/09 02:32:02;;;;;;;7.68;2.63;;;;;;;20.42;48.02;100486.13;5053049;28;20145;-71
2022/11/09 02:34:28;;;;;;;9.13;1.80;;;;;;;20.78;47.80;100496.44;5053530;28;20399;-71
2022/11/09 02:36:54;;;;;;;11.48;2.03;;;;;;;21.29;46.17;100490.78;5052433;28;20036;-71
2022/11/09 02:39:23;;;;;;;8.75;1.55;;;;;;;20.25;48.53;100479.09;5051176;28;20044;-71
2022/11/09 02:41:57;;;;;;;11.60;1.88;;;;;;;20.19;48.99;100488.28;5054384;28;20111;-71
2022/11/09 02:44:24;;;;;;;8.00;1.90;;;;;;;19.77;50.37;100479.03;5084708;28;20437;-71
2022/11/09 02:46:50;;;;;;;11.02;2.22;;;;;;;20.30;48.78;100479.72;5050312;28;20029;-71
2022/11/09 02:49:16;;;;;;;8.70;1.85;;;;;;;20.39;48.49;100483.63;5052601;28;20031;-71
2022/11/09 02:51:41;;;;;;;10.70;2.22;;;;;;;20.27;48.92;100477.25;5050924;28;20021;-71
2022/11/09 02:54:07;;;;;;;12.63;2.20;;;;;;;20.34;48.34;100467.97;5051717;28;20025;-71
2022/11/09 02:56:32;;;;;;;9.50;2.38;;;;;;;20.92;47.65;100478.84;5052716;28;20033;-71
2022/11/09 02:58:58;;;;;;;8.23;1.83;;;;;;;20.54;48.09;100476.59;5050804;28;20049;-71
2022/11/09 03:01:23;;;;;;;10.07;2.55;;;;;;;19.54;50.90;100475.00;5050955;28;20032;-71
2022/11/09 03:03:48;;;;;;;15.18;1.85;;;;;;;19.87;50.15;100480.28;5052341;28;20032;-71
2022/11/09 03:06:14;;;;;;;17.63;2.20;;;;;;;20.27;48.76;100472.78;5050885;28;20526;-71
2022/11/09 03:08:40;;;;;;;8.32;1.85;;;;;;;20.04;49.03;100470.56;5053767;28;20142;-71
2022/11/09 03:11:05;;;;;;;7.78;2.22;;;;;;;19.66;49.76;100477.84;5054416;28;20105;-71
2022/11/09 03:13:32;;;;;;;8.27;2.28;;;;;;;19.28;52.07;100490.47;5083822;28;20025;-71
2022/11/09 03:15:57;;;;;;;11.82;2.45;;;;;;;19.48;51.14;100490.28;5051774;28;20062;-71
2022/11/09 03:18:22;;;;;;;8.15;1.60;;;;;;;19.78;50.28;100496.66;5085553;28;20032;-71
2022/11/09 03:20:48;;;;;;;8.07;1.73;;;;;;;19.51;50.30;100499.88;5084739;28;20104;-71
2022/11/09 03:23:13;;;;;;;12.50;1.73;;;;;;;20.67;47.60;100494.38;5085555;28;20029;-71
2022/11/09 03:25:39;;;;;;;17.08;2.70;;;;;;;20.42;47.86;100502.91;5051740;28;20028;-71
2022/11/09 03:28:06;;;;;;;6.38;2.38;;;;;;;19.70;50.80;100498.88;5051264;28;20078;-71
2022/11/09 03:30:32;;;;;;;8.13;1.90;;;;;;;20.04;48.61;100508.53;5052790;28;20033;-71
2022/11/09 03:32:58;;;;;;;11.32;2.00;;;;;;;19.99;49.00;100505.31;5053037;28;20029;-71
2022/11/09 03:35:24;;;;;;;14.73;2.03;;;;;;;19.66;50.41;100520.25;5048889;28;20064;-71
2022/11/09 03:37:49;;;;;;;8.05;1.77;;;;;;;20.13;48.13;100523.97;5045991;28;20552;-71
2022/11/09 03:40:15;;;;;;;13.60;2.42;;;;;;;19.90;48.63;100519.06;5049935;28;20021;-71
2022/11/09 03:42:44;;;;;;;8.50;1.77;;;;;;;19.75;49.62;100524.19;5048231;28;20639;-72
2022/11/09 03:45:11;;;;;;;7.03;1.50;;;;;;;20.65;47.03;100528.16;5049044;28;20036;-71
2022/11/09 03:47:40;;;;;;;9.95;2.13;;;;;;;19.40;51.06;100524.28;5052992;28;20017;-71
2022/11/09 03:50:05;;;;;;;7.50;1.67;;;;;;;19.61;49.94;100532.03;5051995;28;20021;-71
2022/11/09 03:52:31;;;;;;;5.60;1.55;;;;;;;19.67;49.65;100537.00;5050480;28;20039;-71
2022/11/09 03:54:56;;;;;;;11.52;1.52;;;;;;;20.13;48.58;100534.56;5048378;28;20028;-71
2022/11/09 03:57:21;;;;;;;9.98;1.70;;;;;;;19.53;49.93;100534.25;5047645;28;22010;-71
2022/11/09 03:59:50;;;;;;;6.50;1.67;;;;;;;19.63;50.06;100538.09;5052326;28;20057;-71
2022/11/09 04:02:15;;;;;;;8.32;1.67;;;;;;;19.66;48.69;100543.28;5050569;28;20118;-71
2022/11/09 04:04:40;;;;;;;15.35;1.85;;;;;;;19.43;49.82;100555.91;5049067;28;20056;-71
2022/11/09 04:07:06;;;;;;;14.80;2.13;;;;;;;18.73;51.25;100550.53;5048976;28;20105;-71
2022/11/09 04:09:31;;;;;;;10.07;2.17;;;;;;;19.49;50.43;100549.44;5050303;28;20554;-71
2022/11/09 04:11:56;;;;;;;6.55;1.42;;;;;;;20.16;48.02;100545.00;5052167;28;20032;-71
2022/11/09 04:14:22;;;;;;;9.05;1.98;;;;;;;20.12;48.21;100547.91;5051299;28;20128;-71
2022/11/09 04:16:47;;;;;;;12.57;2.28;;;;;;;19.82;49.41;100552.16;5049577;28;20032;-71
2022/11/09 04:19:12;;;;;;;5.20;1.35;;;;;;;19.92;49.30;100552.53;5047843;28;20056;-71
2022/11/09 04:21:38;;;;;;;9.05;1.60;;;;;;;19.93;48.83;100548.06;5050279;28;20025;-71
2022/11/09 04:24:03;;;;;;;8.85;1.45;;;;;;;19.83;48.79;100558.31;5049299;28;20024;-71
2022/11/09 04:26:29;;;;;;;12.73;1.80;;;;;;;19.93;48.84;100550.72;5052135;28;20037;-71
2022/11/09 04:28:54;;;;;;;10.77;1.88;;;;;;;19.48;49.40;100567.13;5047806;28;20427;-71
2022/11/09 04:31:19;;;;;;;11.45;1.80;;;;;;;19.55;49.20;100545.59;5049695;28;20486;-71
2022/11/09 04:33:49;;;;;;;12.18;1.70;;;;;;;19.53;49.60;100545.69;5049504;28;20486;-71
2022/11/09 04:36:14;;;;;;;12.03;2.43;;;;;;;19.10;50.65;100554.03;5051270;28;20052;-71
2022/11/09 04:38:39;;;;;;;10.23;1.77;;;;;;;19.06;50.20;100557.78;5048618;28;20021;-71
2022/11/09 04:41:05;;;;;;;13.23;1.70;;;;;;;20.15;48.15;100551.28;5049092;28;20036;-71
2022/11/09 04:43:30;;;;;;;13.60;1.80;;;;;;;20.19;47.32;100551.09;5050940;28;20386;-71
2022/11/09 04:45:59;;;;;;;8.80;1.33;;;;;;;20.03;47.75;100559.91;5051100;28;20064;-71
2022/11/09 04:48:25;;;;;;;12.98;2.25;;;;;;;20.19;47.57;100564.38;5048749;28;20029;-71
2022/11/09 04:50:50;;;;;;;13.00;1.92;;;;;;;19.03;50.18;100572.94;5050202;28;20029;-71
2022/11/09 04:53:16;;;;;;;8.95;2.42;;;;;;;19.25;50.44;100567.47;5048931;28;20025;-71
2022/11/09 04:55:41;;;;;;;12.57;1.60;;;;;;;20.53;47.31;100566.00;5049750;28;20060;-71
2022/11/09 04:58:08;;;;;;;10.13;1.50;;;;;;;19.89;49.14;100567.72;5050795;28;20064;-71
2022/11/09 05:00:33;;;;;;;7.43;1.40;;;;;;;19.72;49.11;100577.41;5047617;28;20106;-71
2022/11/09 05:03:00;;;;;;;10.73;1.70;;;;;;;20.23;47.28;100576.53;5048646;28;20028;-71
2022/11/09 05:05:26;;;;;;;10.57;2.15;;;;;;;19.30;51.70;100570.72;5049117;28;20429;-70
2022/11/09 05:07:51;;;;;;;12.15;2.05;;;;;;;20.05;51.15;100565.97;5049497;28;20029;-69
2022/11/09 05:10:17;;;;;;;11.43;2.05;;;;;;;20.09;50.97;100558.72;5050782;28;20037;-70
2022/11/09 05:12:42;;;;;;;8.32;2.40;;;;;;;19.15;51.79;100562.63;5048872;28;20044;-70
2022/11/09 05:15:08;;;;;;;11.23;1.83;;;;;;;19.29;52.32;100564.56;5048992;28;20040;-70
2022/11/09 05:17:33;;;;;;;8.50;1.60;;;;;;;19.26;52.07;100566.50;5049785;28;20040;-70
2022/11/09 05:19:59;;;;;;;15.30;1.93;;;;;;;19.95;51.02;100556.81;5049468;28;20107;-70
2022/11/09 05:25:08;;;;;;;10.00;1.93;;;;;;;19.25;52.88;100567.47;5047362;28;20086;-70
2022/11/09 05:27:33;;;;;;;15.53;2.00;;;;;;;19.24;52.95;100565.75;5049069;28;20028;-70
2022/11/09 05:29:59;;;;;;;12.17;2.83;;;;;;;19.23;52.63;100564.03;5048076;28;20032;-70
2022/11/09 05:32:24;;;;;;;16.43;2.70;;;;;;;19.19;52.22;100562.47;5048427;28;20041;-70
2022/11/09 05:34:49;;;;;;;16.47;2.60;;;;;;;18.86;53.38;100565.81;5047665;28;20063;-70
2022/11/09 05:37:16;;;;;;;13.80;2.20;;;;;;;18.88;53.32;100570.13;5049363;28;20033;-71
2022/11/09 05:39:41;;;;;;;15.33;3.30;;;;;;;18.57;54.59;100576.03;5048780;28;20474;-69
2022/11/09 05:42:09;;;;;;;17.27;1.90;;;;;;;19.05;53.34;100571.09;5047735;28;20029;-71
2022/11/09 05:44:34;;;;;;;9.97;2.30;;;;;;;19.20;51.98;100578.28;5048320;28;20482;-70
2022/11/09 05:46:59;;;;;;;12.00;1.80;;;;;;;18.76;53.41;100579.50;5049170;28;20029;-70
2022/11/09 05:49:25;;;;;;;8.93;1.77;;;;;;;18.26;55.42;100569.53;5049033;28;20021;-70
2022/11/09 05:51:50;;;;;;;10.63;1.83;;;;;;;18.73;54.91;100577.00;5047989;28;20627;-70
2022/11/09 05:54:15;;;;;;;15.23;2.10;;;;;;;18.73;54.04;100584.94;5049956;28;20029;-70
2022/11/09 05:56:41;;;;;;;14.17;2.57;;;;;;;19.47;51.99;100578.66;5049215;28;20036;-70
2022/11/09 05:59:07;;;;;;;11.03;2.00;;;;;;;18.79;53.99;100586.44;5048280;28;20045;-70
2022/11/09 06:01:33;;;;;;;10.77;2.00;;;;;;;18.75;54.00;100585.75;5049866;28;20111;-70
2022/11/09 06:03:58;;;;;;;11.97;2.17;;;;;;;19.67;51.45;100584.72;5044969;28;20562;-70
2022/11/09 06:06:23;;;;;;;13.33;2.23;;;;;;;18.86;52.71;100582.53;5050262;28;20036;-70
2022/11/09 06:08:49;;;;;;;17.67;2.23;;;;;;;18.90;52.25;100578.00;5049720;28;20036;-70
2022/11/09 06:11:14;;;;;;;11.73;1.77;;;;;;;19.05;53.72;100585.19;5048670;28;20028;-70
2022/11/09 06:13:40;;;;;;;15.63;3.17;;;;;;;18.90;53.18;100588.59;5048918;28;20124;-70
2022/11/09 06:16:06;;;;;;;12.43;2.37;;;;;;;19.18;53.10;100590.75;5048984;28;20033;-70
2022/11/09 06:18:34;;;;;;;15.13;2.60;;;;;;;19.36;51.69;100583.66;5049115;28;20032;-71
2022/11/09 06:21:02;;;;;;;15.53;2.07;;;;;;;19.14;52.44;100587.38;5048795;28;20102;-70
2022/11/09 06:23:29;;;;;;;14.57;2.70;;;;;;;18.70;54.29;100593.03;5049900;28;20131;-70
2022/11/09 06:25:58;;;;;;;11.10;2.03;;;;;;;18.38;54.96;100584.84;5050432;28;20025;-70
2022/11/09 06:28:24;;;;;;;14.30;2.20;;;;;;;19.01;53.05;100586.28;5048991;28;20560;-70
2022/11/09 06:30:50;;;;;;;15.90;2.83;;;;;;;18.78;53.66;100596.19;5047375;28;20024;-70
2022/11/09 06:33:15;;;;;;;8.83;2.20;;;;;;;19.12;53.55;100591.03;5082402;28;20025;-70
2022/11/09 06:35:41;;;;;;;13.97;2.60;;;;;;;19.30;52.25;100589.25;5049430;28;20029;-71
2022/11/09 06:38:08;;;;;;;17.50;3.10;;;;;;;19.58;52.21;100593.19;5048343;28;20029;-71
2022/11/09 06:40:35;;;;;;;13.80;2.40;;;;;;;19.76;52.29;100594.88;5049193;28;20457;-71
2022/11/09 06:43:01;;;;;;;16.77;2.85;;;;;;;18.92;53.18;100603.47;5049217;28;20060;-72
2022/11/09 06:45:29;;;;;;;15.50;3.60;;;;;;;18.72;54.50;100599.09;5047563;28;20029;-71
2022/11/09 06:48:00;;;;;;;11.50;1.97;;;;;;;19.15;53.13;100599.72;5065300;28;20074;-71
2022/11/09 06:50:27;;;;;;;14.47;2.40;;;;;;;17.95;55.92;100600.84;5065930;28;20044;-71
2022/11/09 06:52:57;;;;;;;13.03;1.97;;;;;;;19.33;53.08;100597.09;5069239;28;20025;-71
2022/11/09 06:55:23;;;;;;;8.57;2.20;;;;;;;19.17;52.80;100604.94;5053813;28;20541;-70
2022/11/09 06:57:49;;;;;;;7.47;1.87;;;;;;;18.47;56.01;100602.91;5051621;28;20661;-71
2022/11/09 07:00:15;;;;;;;9.93;2.80;;;;;;;18.70;55.46;100611.56;5053231;28;20131;-71
2022/11/09 07:02:41;;;;;;;12.83;2.57;;;;;;;18.51;55.23;100608.09;5053805;28;20028;-71
2022/11/09 07:05:07;;;;;;;13.00;2.83;;;;;;;19.04;54.35;100612.63;5052454;28;20091;-71
2022/11/09 07:07:32;;;;;;;17.60;2.25;;;;;;;18.53;55.96;100612.34;5049866;28;20033;-71
2022/11/09 07:09:57;;;;;;;18.47;2.67;;;;;;;18.34;56.95;100607.06;5051234;28;20513;-71
2022/11/09 07:12:23;;;;;;;15.67;2.20;;;;;;;19.46;53.21;100606.09;5051583;28;20029;-71
2022/11/09 07:14:48;;;;;;;8.27;1.80;;;;;;;18.80;55.34;100610.19;5052064;28;20024;-70
2022/11/09 07:17:14;;;;;;;14.27;2.40;;;;;;;18.36;56.61;100596.41;5051965;28;20446;-71
2022/11/09 07:19:39;;;;;;;14.47;1.87;;;;;;;19.10;53.91;100601.72;5052773;28;20110;-71
2022/11/09 07:22:04;;;;;;;9.20;1.63;;;;;;;19.44;52.01;100613.28;5084704;28;20048;-72
2022/11/09 07:24:30;;;;;;;12.70;2.40;;;;;;;19.09;53.74;100605.28;5052121;28;20021;-71
2022/11/09 07:26:55;;;;;;;12.73;2.33;;;;;;;18.31;56.44;100604.53;5052420;28;20049;-71
2022/11/09 07:29:20;;;;;;;10.07;2.13;;;;;;;18.68;55.68;100604.63;5050937;28;20032;-70
2022/11/09 07:31:46;;;;;;;15.37;2.17;;;;;;;18.89;55.08;100605.41;5084263;28;20036;-70
2022/11/09 07:34:11;;;;;;;20.20;3.50;;;;;;;19.00;54.53;100613.72;5052523;28;20479;-70
2022/11/09 07:36:36;;;;;;;10.48;1.55;;;;;;;18.55;55.43;100610.50;5053015;28;20453;-71
2022/11/09 07:39:02;;;;;;;16.13;2.50;;;;;;;18.92;54.01;100613.22;5051347;28;20028;-70
2022/11/09 07:41:28;;;;;;;14.37;2.70;;;;;;;18.19;55.73;100619.22;5051392;28;20071;-71
2022/11/09 07:43:53;;;;;;;9.17;1.90;;;;;;;18.92;54.32;100629.13;5052811;28;20057;-71
2022/11/09 07:46:18;;;;;;;14.47;2.43;;;;;;;19.03;52.60;100620.63;5051533;28;20056;-71
2022/11/09 07:48:44;;;;;;;11.23;2.10;;;;;;;18.59;55.93;100629.75;5051316;28;20429;-71
2022/11/09 07:51:09;;;;;;;13.50;2.33;;;;;;;19.18;54.16;100641.09;5050822;28;20486;-71
2022/11/09 07:53:34;;;;;;;13.90;3.25;;;;;;;19.38;52.64;100645.38;5051307;28;20032;-71
2022/11/09 07:56:03;;;;;;;9.93;2.13;;;;;;;19.33;52.70;100644.78;5051716;28;20067;-71
2022/11/09 07:58:29;;;;;;;12.30;2.50;;;;;;;19.39;52.21;100649.75;5047703;28;20033;-71
2022/11/09 08:00:55;;;;;;;12.35;2.40;;;;;;;18.84;54.69;100655.06;5053995;28;20090;-72
2022/11/09 08:03:21;;;;;;;10.38;2.20;;;;;;;19.34;53.05;100649.13;5083669;28;20029;-71
2022/11/09 08:05:46;;;;;;;16.00;2.30;;;;;;;18.87;54.83;100658.41;5051178;28;20031;-71
2022/11/09 08:08:14;;;;;;;17.10;3.20;;;;;;;19.23;53.77;100654.09;5049403;28;20476;-71
2022/11/09 08:10:40;;;;;;;18.95;2.60;;;;;;;19.68;52.16;100655.38;5051896;28;20390;-72
2022/11/09 08:13:09;;;;;;;13.70;2.42;;;;;;;19.21;52.99;100655.97;5051922;28;20032;-71
2022/11/09 08:15:35;;;;;;;12.25;2.30;;;;;;;19.58;53.52;100662.94;5050083;28;20075;-71
2022/11/09 08:18:04;;;;;;;15.13;2.25;;;;;;;19.27;52.80;100666.25;5047923;28;20054;-71
2022/11/09 08:20:30;;;;;;;13.75;2.17;;;;;;;20.20;51.10;100656.31;5050775;28;20071;-71
2022/11/09 08:22:56;;;;;;;13.65;3.22;;;;;;;19.35;53.02;100668.53;5048842;28;20029;-71
2022/11/09 08:25:21;;;;;;;13.80;2.75;;;;;;;19.62;52.50;100669.81;5048890;28;20487;-71
2022/11/09 08:27:46;;;;;;;13.32;2.25;;;;;;;20.17;50.55;100658.16;5055058;28;20037;-71
2022/11/09 08:30:20;;;;;;;9.52;2.30;;;;;;;19.32;53.43;100665.09;5049670;28;20382;-71
2022/11/09 08:32:46;;;;;;;11.43;2.08;;;;;;;18.86;54.09;100672.56;5052112;28;20035;-71
2022/11/09 08:35:16;;;;;;;14.02;2.03;;;;;;;19.62;51.93;100668.97;5050108;28;20078;-72
2022/11/09 08:37:45;;;;;;;13.23;2.25;;;;;;;19.77;51.65;100681.44;5049134;28;20033;-71
2022/11/09 08:40:12;;;;;;;9.85;2.08;;;;;;;19.29;52.48;100686.44;5050362;28;20032;-71
2022/11/09 08:42:37;;;;;;;11.73;2.38;;;;;;;19.54;52.88;100689.69;5053835;28;20035;-71
2022/11/09 08:45:03;;;;;;;12.57;1.92;;;;;;;19.18;53.46;100687.91;5052103;28;20112;-71
2022/11/09 08:47:28;;;;;;;14.20;2.60;;;;;;;19.87;51.84;100691.63;5051008;28;20071;-71
2022/11/09 08:49:54;;;;;;;17.48;2.63;;;;;;;20.10;50.92;100683.31;5052245;28;20082;-71
2022/11/09 08:52:20;;;;;;;12.57;2.25;;;;;;;19.03;53.71;100685.06;5065218;28;20270;-70
2022/11/09 08:54:45;;;;;;;8.73;1.90;;;;;;;19.61;52.82;100691.09;5050205;28;20440;-71
2022/11/09 08:57:11;;;;;;;18.23;2.35;;;;;;;19.15;54.13;100683.59;5052641;28;20036;-71
2022/11/09 08:59:36;;;;;;;9.10;2.45;;;;;;;19.17;52.01;100686.19;5048799;28;20116;-71
2022/11/09 09:02:02;;;;;;;11.88;2.95;;;;;;;19.81;50.67;100690.09;5052674;28;20079;-71
2022/11/09 09:04:28;;;;;;;12.00;2.63;;;;;;;20.60;48.72;100676.22;5049453;28;20025;-71
2022/11/09 09:06:55;;;;;;;13.63;2.97;;;;;;;19.75;51.66;100685.94;5050031;28;20041;-72
2022/11/09 09:09:20;;;;;;;20.50;3.30;;;;;;;20.55;50.12;100688.88;5049109;28;20074;-71
2022/11/09 09:11:45;;;;;;;9.25;2.47;;;;;;;19.58;51.99;100685.97;5057908;28;20371;-72
2022/11/09 09:14:11;;;;;;;15.77;3.85;;;;;;;19.35;51.72;100680.00;5049573;28;20115;-71
2022/11/09 09:16:36;;;;;;;20.77;2.78;;;;;;;19.59;52.18;100693.84;5049893;28;20024;-72
2022/11/09 09:19:02;;;;;;;13.77;2.40;;;;;;;20.42;50.24;100687.84;5050094;28;20525;-71
2022/11/09 09:21:27;;;;;;;14.30;2.72;;;;;;;19.52;51.77;100680.94;5050133;28;20037;-71
2022/11/09 09:23:53;;;;;;;12.65;2.55;;;;;;;19.79;51.21;100694.63;5051103;28;20459;-71
2022/11/09 09:26:19;;;;;;;12.18;3.03;;;;;;;19.67;51.60;100690.78;5048889;28;20039;-71
2022/11/09 09:28:44;;;;;;;18.92;2.28;;;;;;;19.90;50.99;100684.34;5049015;28;20032;-71
2022/11/09 09:31:10;;;;;;;12.15;2.35;;;;;;;20.45;49.48;100677.91;5051845;28;20032;-71
2022/11/09 09:33:35;;;;;;;16.80;3.00;;;;;;;20.02;50.78;100690.81;5047290;28;20033;-71
2022/11/09 09:36:01;;;;;;;16.60;3.42;;;;;;;19.99;50.86;100696.28;5083135;28;20032;-71
2022/11/09 09:38:28;;;;;;;16.45;2.65;;;;;;;19.63;51.71;100694.50;5048465;28;20028;-71
2022/11/09 09:40:56;;;;;;;11.70;2.47;;;;;;;19.95;50.29;100700.88;5048247;28;20077;-71
2022/11/09 09:43:42;;;;;;;10.10;2.30;;;;;;;19.32;51.12;100694.25;5059460;28;20082;-71
2022/11/09 09:46:30;;;;;;;16.10;2.90;;;;;;;20.15;49.31;100702.50;5049200;28;20067;-71
2022/11/09 09:49:02;;;;;;;16.75;3.00;;;;;;;19.93;50.37;100702.75;5048009;28;20040;-72
2022/11/09 09:51:40;;;;;;;12.70;2.90;;;;;;;20.03;49.77;100702.28;5051627;28;20115;-71
2022/11/09 09:54:14;;;;;;;7.50;2.30;;;;;;;19.99;49.97;100717.50;5049161;28;20032;-72
2022/11/09 09:56:43;;;;;;;12.25;2.40;;;;;;;19.63;50.79;100721.03;5049224;28;20489;-72
2022/11/09 09:59:08;;;;;;;17.95;2.38;;;;;;;21.05;47.09;100712.78;5050412;28;20127;-70
2022/11/09 10:01:40;;;;;;;11.18;2.35;;;;;;;19.79;50.09;100727.28;5048324;28;20616;-71
2022/11/09 10:04:18;;;;;;;9.85;2.08;;;;;;;20.43;48.99;100747.94;5048872;28;20023;-70
2022/11/09 10:06:59;;;;;;;10.68;2.25;;;;;;;19.56;49.68;100735.53;5082692;28;20502;-71
2022/11/09 10:09:44;;;;;;;6.65;1.80;;;;;;;20.00;49.55;100745.72;5048720;28;20515;-71
2022/11/09 10:12:37;;;;;;;12.65;2.40;;;;;;;19.03;51.52;100742.47;5048201;28;20398;-70
2022/11/09 10:15:17;;;;;;;14.55;2.35;;;;;;;20.45;48.43;100746.94;5052345;28;20398;-71
2022/11/09 10:18:13;;;;;;;8.73;1.85;;;;;;;19.04;52.16;100760.97;5049189;28;20029;-72
2022/11/09 10:20:46;;;;;;;9.55;2.08;;;;;;;20.42;48.89;100747.09;5051148;28;20120;-71
2022/11/09 10:23:30;;;;;;;15.25;2.70;;;;;;;20.00;49.48;100754.56;5051960;28;20499;-71
2022/11/09 10:26:09;;;;;;;8.57;2.03;;;;;;;20.80;47.56;100746.88;5052927;28;20060;-70
2022/11/09 10:28:40;;;;;;;13.82;1.98;;;;;;;20.65;48.21;100748.53;5052912;28;20115;-71
2022/11/09 10:31:14;;;;;;;10.10;2.38;;;;;;;20.21;50.35;100756.19;5052056;28;20452;-71
2022/11/09 10:33:39;;;;;;;25.40;3.20;;;;;;;20.22;51.13;100755.25;5051478;28;20087;-71
2022/11/09 10:36:23;;;;;;;23.77;3.25;;;;;;;19.66;51.27;100736.81;5050956;28;20025;-70
2022/11/09 10:38:50;;;;;;;18.08;2.50;;;;;;;19.59;52.63;100738.03;5052850;28;20378;-71
2022/11/09 10:41:26;;;;;;;18.70;2.58;;;;;;;19.28;53.91;100743.03;5055727;28;20025;-71
2022/11/09 10:43:51;;;;;;;13.93;2.20;;;;;;;18.56;54.27;100739.25;5051140;28;20029;-72
2022/11/09 10:46:17;;;;;;;16.08;2.55;;;;;;;19.36;53.95;100740.00;5053697;28;20036;-72
2022/11/09 10:48:42;;;;;;;28.08;3.97;;;;;;;19.24;53.59;100741.44;5052583;28;20021;-71
2022/11/09 10:51:34;;;;;;;21.05;3.83;;;;;;;19.64;53.69;100743.97;5051877;28;20037;-70
2022/11/09 10:54:20;;;;;;;9.38;2.13;;;;;;;19.47;52.35;100742.16;5051601;28;20059;-72
2022/11/09 10:57:12;;;;;;;10.00;2.42;;;;;;;19.85;51.11;100735.91;5054672;28;20056;-70
2022/11/09 10:59:55;;;;;;;34.03;3.90;;;;;;;19.70;51.41;100733.06;5048776;28;20048;-69
2022/11/09 11:02:24;;;;;;;;;;;;;;;19.79;50.68;100735.22;5051489;28;20032;-69
2022/11/09 11:04:50;;;;;;;11.20;1.92;;;;;;;19.50;51.01;100721.63;5061818;28;19958;-69
2022/11/09 11:07:20;;;;;;;41.13;4.40;;;;;;;20.55;49.12;100722.56;5052214;28;20478;-69
2022/11/09 11:09:46;;;;;;;9.57;2.65;;;;;;;19.42;51.98;100723.81;5051965;28;20029;-69
2022/11/09 11:12:19;;;;;;;13.10;2.65;;;;;;;19.56;51.61;100735.53;5050460;28;20031;-68
2022/11/09 11:14:44;;;;;;;;;;;;;;;18.84;54.21;100726.56;5052426;28;20509;-69
2022/11/09 11:17:34;;;;;;;7.75;1.70;;;;;;;18.62;56.31;100759.31;5085806;28;19947;-69
2022/11/09 11:20:23;;;;;;;12.77;2.35;;;;;;;18.79;55.35;100750.59;5051997;28;20051;-69
2022/11/09 11:22:48;;;;;;;4.13;0.90;;;;;;;17.72;56.34;100757.81;5050996;28;20032;-69
2022/11/09 11:25:19;;;;;;;10.00;1.80;;;;;;;17.77;55.55;100739.94;5050319;28;20518;-70